createdAt,value
2023-11-27T00:00:37.296Z,54.08
2023-11-27T00:03:07.337Z,53.81
2023-11-27T00:05:35.571Z,53.42
2023-11-27T00:08:03.461Z,54.16
2023-11-27T00:10:30.227Z,53.84
2023-11-27T00:12:57.305Z,53.39
2023-11-27T00:15:24.100Z,53.49
2023-11-27T00:17:53.321Z,53.83
2023-11-27T00:20:20.103Z,53.40
2023-11-27T00:22:46.692Z,53.23
2023-11-27T00:25:13.681Z,53.07
2023-11-27T00:27:40.260Z,52.96
2023-11-27T00:30:07.289Z,53.10
2023-11-27T00:32:33.677Z,53.38
2023-11-27T00:35:00.735Z,53.56
2023-11-27T00:37:28.601Z,53.43
2023-11-27T00:39:55.225Z,52.98
2023-11-27T00:42:22.445Z,52.98
2023-11-27T00:44:49.349Z,53.04
2023-11-27T00:47:16.732Z,51.78
2023-11-27T00:49:43.425Z,52.11
2023-11-27T00:52:10.130Z,52.40
2023-11-27T00:54:36.576Z,52.34
2023-11-27T00:57:03.049Z,51.94
2023-11-27T00:59:29.696Z,51.45
2023-11-27T01:01:56.388Z,51.47
2023-11-27T01:04:23.624Z,51.72
2023-11-27T01:06:59.352Z,51.63
2023-11-27T01:09:25.984Z,50.93
2023-11-27T01:11:52.571Z,50.94
2023-11-27T01:14:19.279Z,50.78
2023-11-27T01:16:50.927Z,51.37
2023-11-27T01:19:19.881Z,51.56
2023-11-27T01:21:47.176Z,51.47
2023-11-27T01:24:14.457Z,51.80
2023-11-27T01:26:41.091Z,51.67
2023-11-27T01:29:07.832Z,51.83
2023-11-27T01:31:34.484Z,51.90
2023-11-27T01:34:02.603Z,52.75
2023-11-27T01:36:29.570Z,52.58
2023-11-27T01:38:56.996Z,51.68
2023-11-27T01:41:30.966Z,51.34
2023-11-27T01:43:57.481Z,51.98
2023-11-27T01:46:24.219Z,52.40
2023-11-27T01:48:51.793Z,51.94
2023-11-27T01:51:18.322Z,52.28
2023-11-27T01:53:45.182Z,52.54
2023-11-27T01:56:12.622Z,51.78
2023-11-27T01:58:41.048Z,52.89
2023-11-27T02:01:07.914Z,53.01
2023-11-27T02:03:36.683Z,53.92
2023-11-27T02:06:04.440Z,53.64
2023-11-27T02:08:31.078Z,53.54
2023-11-27T02:10:59.944Z,53.75
2023-11-27T02:13:26.988Z,53.07
2023-11-27T02:15:54.920Z,53.82
2023-11-27T02:18:21.853Z,55.01
2023-11-27T02:20:48.600Z,55.11
2023-11-27T02:23:15.430Z,54.46
2023-11-27T02:25:42.536Z,54.15
2023-11-27T02:28:11.736Z,53.81
2023-11-27T02:30:38.609Z,53.78
2023-11-27T02:33:05.493Z,54.43
2023-11-27T02:35:35.478Z,55.41
2023-11-27T02:38:04.070Z,55.72
2023-11-27T02:40:31.828Z,55.12
2023-11-27T02:42:58.782Z,54.30
2023-11-27T02:45:25.778Z,54.83
2023-11-27T02:47:53.310Z,54.79
2023-11-27T02:50:19.745Z,55.39
2023-11-27T02:52:46.345Z,55.12
2023-11-27T02:55:12.940Z,55.04
2023-11-27T02:57:40.116Z,54.86
2023-11-27T03:00:09.057Z,54.64
2023-11-27T03:02:37.975Z,54.83
2023-11-27T03:05:04.554Z,55.58
2023-11-27T03:07:31.176Z,55.07
2023-11-27T03:09:58.029Z,54.66
2023-11-27T03:12:24.485Z,55.62
2023-11-27T03:14:51.413Z,55.42
2023-11-27T03:17:18.189Z,54.66
2023-11-27T03:19:48.660Z,53.95
2023-11-27T03:22:16.259Z,53.87
2023-11-27T03:24:45.929Z,54.13
2023-11-27T03:27:12.473Z,53.98
2023-11-27T03:29:39.304Z,54.29
2023-11-27T03:32:07.050Z,54.28
2023-11-27T03:34:33.566Z,54.61
2023-11-27T03:37:00.304Z,54.36
2023-11-27T03:39:27.232Z,53.94
2023-11-27T03:41:54.044Z,53.74
2023-11-27T03:44:20.756Z,53.28
2023-11-27T03:46:47.383Z,53.37
2023-11-27T03:49:14.088Z,53.31
2023-11-27T03:51:41.110Z,53.92
2023-11-27T03:54:08.158Z,53.70
2023-11-27T03:56:35.608Z,53.62
2023-11-27T03:59:02.391Z,53.90
2023-11-27T04:01:29.647Z,54.36
2023-11-27T04:03:56.679Z,54.00
2023-11-27T04:06:23.480Z,53.72
2023-11-27T04:08:51.199Z,53.45
2023-11-27T04:11:21.836Z,53.26
2023-11-27T04:13:48.719Z,54.03
2023-11-27T04:16:15.306Z,54.30
2023-11-27T04:18:43.727Z,55.23
2023-11-27T04:21:10.289Z,54.71
2023-11-27T04:23:36.866Z,54.83
2023-11-27T04:26:03.563Z,53.93
2023-11-27T04:28:30.892Z,54.01
2023-11-27T04:30:59.104Z,54.08
2023-11-27T04:33:25.541Z,53.90
2023-11-27T04:35:54.975Z,53.46
2023-11-27T04:38:23.927Z,54.21
2023-11-27T04:40:50.385Z,54.19
2023-11-27T04:43:17.237Z,55.16
2023-11-27T04:45:43.984Z,54.50
2023-11-27T04:48:10.427Z,54.90
2023-11-27T04:50:37.361Z,54.38
2023-11-27T04:53:03.928Z,55.30
2023-11-27T04:55:32.812Z,56.63
2023-11-27T04:57:59.427Z,55.52
2023-11-27T05:00:26.276Z,55.04
2023-11-27T05:02:55.241Z,55.13
2023-11-27T05:05:21.854Z,56.55
2023-11-27T05:07:48.667Z,56.05
2023-11-27T05:10:15.207Z,55.99
2023-11-27T05:12:42.812Z,56.15
2023-11-27T05:15:09.603Z,56.00
2023-11-27T05:17:36.564Z,55.95
2023-11-27T05:20:03.822Z,56.21
2023-11-27T05:22:30.336Z,56.37
2023-11-27T05:24:57.455Z,57.00
2023-11-27T05:27:24.629Z,56.50
2023-11-27T05:29:53.491Z,56.31
2023-11-27T05:32:20.405Z,56.80
2023-11-27T05:34:49.335Z,57.24
2023-11-27T05:37:18.447Z,57.80
2023-11-27T05:39:45.268Z,58.52
2023-11-27T05:42:12.117Z,58.50
2023-11-27T05:47:21.344Z,58.37
2023-11-27T05:49:48.157Z,58.42
2023-11-27T05:54:55.398Z,59.01
2023-11-27T05:57:22.335Z,59.77
2023-11-27T05:59:51.003Z,59.56
2023-11-27T06:02:18.191Z,59.42
2023-11-27T06:04:45.234Z,59.90
2023-11-27T06:07:11.767Z,59.68
2023-11-27T06:09:39.068Z,59.30
2023-11-27T06:12:09.293Z,59.01
2023-11-27T06:14:35.899Z,59.54
2023-11-27T06:17:03.111Z,59.45
2023-11-27T06:19:29.876Z,59.39
2023-11-27T06:21:56.570Z,58.82
2023-11-27T06:24:23.270Z,59.11
2023-11-27T06:26:49.782Z,59.45
2023-11-27T06:29:17.031Z,58.88
2023-11-27T06:31:46.320Z,59.81
2023-11-27T06:34:13.160Z,59.97
2023-11-27T06:36:39.814Z,59.68
2023-11-27T06:39:07.437Z,60.72
2023-11-27T06:41:35.087Z,60.21
2023-11-27T06:44:09.734Z,60.77
2023-11-27T06:46:36.365Z,60.08
2023-11-27T06:49:04.698Z,59.81
2023-11-27T06:51:31.350Z,60.62
2023-11-27T06:53:57.893Z,60.33
2023-11-27T06:56:24.976Z,60.02
2023-11-27T06:58:52.436Z,59.59
2023-11-27T07:01:19.346Z,59.65
2023-11-27T07:03:50.926Z,59.63
2023-11-27T07:06:17.536Z,59.37
2023-11-27T07:08:43.957Z,59.54
2023-11-27T07:11:10.886Z,59.43
2023-11-27T07:13:37.322Z,58.98
2023-11-27T07:16:04.440Z,58.87
2023-11-27T07:18:34.287Z,60.15
2023-11-27T07:21:01.448Z,58.67
2023-11-27T07:23:28.353Z,58.46
2023-11-27T07:25:54.805Z,58.24
2023-11-27T07:28:21.351Z,58.69
2023-11-27T07:30:48.784Z,59.60
2023-11-27T07:33:15.292Z,59.87
2023-11-27T07:35:42.024Z,59.27
2023-11-27T07:38:09.098Z,59.76
2023-11-27T07:40:35.834Z,59.36
2023-11-27T07:43:02.849Z,60.81
2023-11-27T07:45:32.455Z,59.91
2023-11-27T07:47:59.080Z,59.60
2023-11-27T07:50:25.543Z,60.04
2023-11-27T07:52:52.059Z,63.97
2023-11-27T07:55:18.640Z,66.92
2023-11-27T07:57:45.144Z,64.92
2023-11-27T08:00:11.609Z,62.32
2023-11-27T08:02:39.085Z,57.38
2023-11-27T08:05:05.782Z,60.17
2023-11-27T08:07:32.298Z,54.93
2023-11-27T08:09:58.977Z,54.76
2023-11-27T08:12:25.447Z,54.22
2023-11-27T08:14:54.988Z,54.34
2023-11-27T08:17:23.962Z,54.61
2023-11-27T08:19:50.733Z,55.07
2023-11-27T08:22:18.320Z,55.02
2023-11-27T08:24:44.960Z,55.71
2023-11-27T08:27:15.301Z,55.55
2023-11-27T08:29:43.455Z,56.09
2023-11-27T08:32:10.310Z,55.58
2023-11-27T08:34:36.720Z,55.86
2023-11-27T08:37:03.261Z,56.70
2023-11-27T08:39:31.547Z,56.60
2023-11-27T08:41:58.182Z,57.69
2023-11-27T08:44:25.431Z,58.00
2023-11-27T08:46:53.112Z,57.43
2023-11-27T08:49:19.868Z,57.25
2023-11-27T08:51:48.414Z,57.39
2023-11-27T08:54:16.022Z,57.38
2023-11-27T08:56:42.698Z,57.87
2023-11-27T08:59:09.243Z,58.11
2023-11-27T09:01:37.390Z,57.63
2023-11-27T09:04:04.134Z,57.36
2023-11-27T09:06:30.681Z,56.89
2023-11-27T09:08:57.474Z,57.91
2023-11-27T09:11:26.688Z,57.99
2023-11-27T09:13:55.680Z,57.62
2023-11-27T09:16:24.599Z,57.45
2023-11-27T09:18:51.209Z,57.36
2023-11-27T09:21:18.535Z,57.28
2023-11-27T09:23:45.413Z,57.61
2023-11-27T09:26:12.309Z,57.73
2023-11-27T09:28:40.467Z,57.51
2023-11-27T09:31:07.908Z,57.49
2023-11-27T09:33:34.433Z,57.44
2023-11-27T09:36:00.934Z,57.07
2023-11-27T09:38:27.721Z,56.94
2023-11-27T09:40:54.497Z,57.18
2023-11-27T09:43:21.545Z,58.24
2023-11-27T09:45:48.165Z,58.27
2023-11-27T09:48:14.801Z,57.79
2023-11-27T09:50:41.433Z,57.57
2023-11-27T09:53:07.916Z,57.01
2023-11-27T09:55:35.045Z,56.24
2023-11-27T09:58:02.413Z,57.56
2023-11-27T10:00:29.053Z,57.28
2023-11-27T10:02:56.459Z,56.78
2023-11-27T10:05:23.550Z,57.08
2023-11-27T10:07:50.808Z,56.73
2023-11-27T10:10:20.068Z,56.53
2023-11-27T10:12:47.355Z,56.04
2023-11-27T10:15:14.006Z,55.84
2023-11-27T10:17:40.925Z,55.04
2023-11-27T10:20:07.952Z,54.94
2023-11-27T10:22:34.629Z,55.78
2023-11-27T10:25:03.140Z,55.06
2023-11-27T10:27:30.003Z,54.52
2023-11-27T10:29:56.801Z,60.42
2023-11-27T10:32:23.718Z,55.23
2023-11-27T10:34:50.210Z,53.46
2023-11-27T10:37:18.450Z,52.95
2023-11-27T10:39:44.912Z,52.52
2023-11-27T10:42:11.721Z,52.35
2023-11-27T10:44:38.310Z,52.01
2023-11-27T10:47:05.026Z,52.00
2023-11-27T10:49:32.246Z,52.12
2023-11-27T10:51:59.648Z,51.88
2023-11-27T10:54:26.141Z,51.59
2023-11-27T10:56:52.895Z,51.50
2023-11-27T10:59:19.354Z,51.36
2023-11-27T11:01:45.946Z,50.85
2023-11-27T11:04:12.867Z,50.27
2023-11-27T11:06:39.445Z,50.53
2023-11-27T11:09:06.401Z,50.03
2023-11-27T11:11:34.193Z,50.13
2023-11-27T11:14:00.627Z,50.11
2023-11-27T11:16:27.328Z,50.69
2023-11-27T11:18:54.464Z,52.31
2023-11-27T11:21:26.919Z,50.59
2023-11-27T11:23:57.284Z,50.54
2023-11-27T11:26:34.130Z,50.04
2023-11-27T11:29:08.641Z,49.86
2023-11-27T11:31:40.112Z,49.96
2023-11-27T11:34:06.887Z,50.39
2023-11-27T11:36:35.889Z,49.95
2023-11-27T11:39:03.939Z,49.73
2023-11-27T11:44:11.076Z,50.45
2023-11-27T11:46:41.967Z,50.21
2023-11-27T11:49:10.454Z,49.97
2023-11-27T11:54:26.395Z,50.09
2023-11-27T11:56:57.581Z,49.42
2023-11-27T11:59:24.173Z,48.97
2023-11-27T12:01:52.557Z,48.36
2023-11-27T12:04:19.224Z,48.35
2023-11-27T12:06:46.392Z,48.44
2023-11-27T12:09:14.922Z,47.58
2023-11-27T12:11:41.591Z,48.00
2023-11-27T12:14:08.456Z,47.99
2023-11-27T12:19:18.326Z,47.34
2023-11-27T12:21:55.711Z,45.94
2023-11-27T12:24:22.892Z,47.89
2023-11-27T12:26:49.810Z,47.70
2023-11-27T12:29:18.555Z,48.10
2023-11-27T12:31:45.139Z,46.95
2023-11-27T12:34:12.684Z,47.64
2023-11-27T12:36:39.249Z,47.11
2023-11-27T12:39:05.738Z,45.81
2023-11-27T12:41:34.875Z,45.50
2023-11-27T12:44:02.816Z,45.67
2023-11-27T12:46:29.475Z,44.89
2023-11-27T12:48:56.502Z,44.85
2023-11-27T12:51:23.144Z,44.33
2023-11-27T12:53:50.953Z,43.97
2023-11-27T12:56:17.521Z,43.88
2023-11-27T12:58:44.324Z,44.68
2023-11-27T13:01:10.878Z,44.63
2023-11-27T13:03:37.426Z,44.19
2023-11-27T13:06:04.291Z,43.69
2023-11-27T13:08:31.728Z,43.71
2023-11-27T13:10:59.239Z,43.83
2023-11-27T13:13:26.228Z,43.91
2023-11-27T13:15:52.885Z,44.00
2023-11-27T13:18:19.611Z,43.79
2023-11-27T13:20:46.319Z,44.69
2023-11-27T13:23:14.063Z,44.31
2023-11-27T13:25:40.546Z,43.00
2023-11-27T13:28:10.342Z,43.63
2023-11-27T13:30:36.843Z,44.27
2023-11-27T13:33:03.961Z,43.86
2023-11-27T13:35:30.798Z,43.42
2023-11-27T13:37:57.378Z,44.11
2023-11-27T13:40:24.084Z,43.40
2023-11-27T13:42:51.036Z,43.43
2023-11-27T13:45:17.603Z,44.02
2023-11-27T13:47:44.144Z,43.87
2023-11-27T13:50:11.934Z,43.80
2023-11-27T13:52:38.406Z,43.73
2023-11-27T13:55:04.957Z,44.34
2023-11-27T13:57:34.323Z,42.83
2023-11-27T14:00:01.975Z,44.36
2023-11-27T14:02:31.193Z,43.99
2023-11-27T14:04:58.336Z,43.09
2023-11-27T14:07:26.187Z,43.41
2023-11-27T14:09:53.129Z,44.10
2023-11-27T14:12:19.682Z,43.40
2023-11-27T14:14:46.232Z,44.11
2023-11-27T14:17:12.889Z,44.34
2023-11-27T14:19:39.411Z,43.47
2023-11-27T14:22:06.017Z,47.62
2023-11-27T14:24:32.468Z,55.30
2023-11-27T14:27:00.327Z,47.30
2023-11-27T14:29:34.190Z,44.44
2023-11-27T14:34:42.686Z,55.44
2023-11-27T14:37:09.233Z,49.81
2023-11-27T14:39:35.933Z,48.77
2023-11-27T14:42:03.183Z,45.41
2023-11-27T14:44:31.022Z,45.17
2023-11-27T14:46:58.471Z,46.33
2023-11-27T14:49:25.273Z,46.46
2023-11-27T14:51:52.724Z,46.21
2023-11-27T14:54:21.541Z,46.24
2023-11-27T14:56:48.814Z,46.45
2023-11-27T14:59:15.293Z,46.34
2023-11-27T15:01:42.805Z,46.87
2023-11-27T15:04:10.426Z,46.34
2023-11-27T15:06:38.175Z,46.48
2023-11-27T15:09:04.670Z,47.07
2023-11-27T15:11:33.581Z,46.96
2023-11-27T15:14:00.901Z,47.00
2023-11-27T15:16:27.740Z,47.37
2023-11-27T15:18:55.648Z,47.14
2023-11-27T15:21:22.271Z,47.38
2023-11-27T15:23:51.230Z,47.85
2023-11-27T15:26:20.359Z,47.50
2023-11-27T15:28:47.497Z,48.09
2023-11-27T15:31:14.508Z,48.24
2023-11-27T15:33:41.246Z,48.71
2023-11-27T15:38:48.959Z,48.68
2023-11-27T15:46:37.223Z,49.49
2023-11-27T15:49:05.308Z,49.51
2023-11-27T15:51:32.982Z,49.40
2023-11-27T15:54:00.231Z,49.46
2023-11-27T15:56:26.655Z,49.23
2023-11-27T15:58:53.640Z,49.86
2023-11-27T16:01:20.431Z,49.51
2023-11-27T16:03:48.671Z,50.11
2023-11-27T16:06:15.514Z,49.49
2023-11-27T16:08:42.912Z,49.10
2023-11-27T16:11:10.852Z,49.80
2023-11-27T16:13:37.521Z,48.76
2023-11-27T16:16:03.975Z,48.81
2023-11-27T16:21:12.381Z,48.75
2023-11-27T16:23:43.251Z,48.59
2023-11-27T16:26:12.962Z,48.73
2023-11-27T16:28:40.733Z,49.07
2023-11-27T16:31:12.904Z,47.76
2023-11-27T16:33:39.533Z,47.65
2023-11-27T16:38:46.590Z,47.50
2023-11-27T16:41:13.949Z,47.52
2023-11-27T16:43:42.776Z,49.02
2023-11-27T16:46:09.332Z,47.06
2023-11-27T16:48:36.196Z,47.72
2023-11-27T16:51:04.964Z,46.77
2023-11-27T16:53:31.875Z,46.97
2023-11-27T16:56:01.060Z,47.01
2023-11-27T16:58:28.672Z,46.50
2023-11-27T17:00:55.463Z,46.94
2023-11-27T17:03:22.399Z,47.04
2023-11-27T17:05:50.646Z,47.51
2023-11-27T17:08:19.686Z,47.23
2023-11-27T17:10:48.650Z,47.38
2023-11-27T17:13:15.432Z,47.22
2023-11-27T17:15:42.741Z,47.20
2023-11-27T17:18:09.875Z,47.50
2023-11-27T17:20:40.917Z,47.32
2023-11-27T17:23:08.454Z,47.54
2023-11-27T17:25:35.263Z,47.74
2023-11-27T17:28:04.531Z,47.95
2023-11-27T17:30:31.272Z,48.30
2023-11-27T17:33:01.430Z,48.35
2023-11-27T17:35:29.267Z,48.08
2023-11-27T17:37:55.821Z,48.05
2023-11-27T17:40:27.002Z,47.74
2023-11-27T17:42:54.563Z,47.99
2023-11-27T17:45:22.778Z,48.27
2023-11-27T17:47:49.663Z,48.02
2023-11-27T17:50:22.096Z,48.06
2023-11-27T17:52:49.818Z,47.37
2023-11-27T17:55:17.314Z,47.80
2023-11-27T17:57:43.960Z,48.19
2023-11-27T18:02:52.343Z,47.93
2023-11-27T18:05:21.532Z,47.79
2023-11-27T18:07:48.938Z,47.99
2023-11-27T18:10:16.070Z,47.41
2023-11-27T22:42:57.882Z,47.36
2023-11-27T22:45:25.405Z,47.03
2023-11-27T22:47:54.057Z,46.59
2023-11-27T22:50:21.823Z,47.22
2023-11-27T22:55:36.298Z,47.16
2023-11-27T22:58:05.616Z,47.28
2023-11-27T23:05:58.835Z,47.03
2023-11-27T23:24:30.871Z,48.08
2023-11-27T23:26:57.626Z,48.13
2023-11-27T23:29:28.542Z,48.02
2023-11-27T23:31:58.311Z,48.31
2023-11-27T23:34:26.759Z,48.28
2023-11-27T23:36:53.869Z,47.89
2023-11-27T23:39:20.576Z,48.02
2023-11-27T23:41:47.562Z,47.91
2023-11-27T23:44:15.154Z,48.11
2023-11-27T23:46:42.246Z,48.17
2023-11-27T23:49:10.664Z,47.98
2023-11-27T23:51:37.448Z,48.89
2023-11-27T23:54:04.229Z,48.93
2023-11-27T23:56:31.089Z,48.65
2023-11-27T23:58:59.917Z,48.63
